createdAt,value
2019-05-02T00:03:50.952Z,100848.05
2019-05-02T00:09:56.895Z,100837.44
2019-05-02T00:16:03.752Z,100845.67
2019-05-02T00:22:16.658Z,100832.90
2019-05-02T00:28:17.968Z,100835.06
2019-05-02T00:34:23.865Z,100832.28
2019-05-02T00:40:29.829Z,100830.09
2019-05-02T00:46:36.190Z,100831.33
2019-05-02T00:52:42.024Z,100817.66
2019-05-02T00:58:47.905Z,100821.55
2019-05-02T01:04:54.061Z,100814.45
2019-05-02T01:10:59.814Z,100807.38
2019-05-02T01:17:05.536Z,100803.37
2019-05-02T01:23:11.316Z,100806.92
2019-05-02T01:29:29.868Z,100799.87
2019-05-02T01:35:51.693Z,100799.77
2019-05-02T01:42:00.000Z,100797.83
2019-05-02T01:48:09.773Z,100787.67
2019-05-02T01:54:13.143Z,100779.30
2019-05-02T02:00:19.441Z,100776.76
2019-05-02T02:06:25.394Z,100782.23
2019-05-02T02:12:31.294Z,100768.67
2019-05-02T02:18:44.305Z,100766.41
2019-05-02T02:25:08.931Z,100769.98
2019-05-02T02:31:14.733Z,100773.42
2019-05-02T02:37:20.695Z,100775.94
2019-05-02T02:43:34.074Z,100766.64
2019-05-02T02:49:34.530Z,100767.86
2019-05-02T02:55:40.655Z,100762.08
2019-05-02T03:01:47.109Z,100761.20
2019-05-02T03:07:53.094Z,100753.44
2019-05-02T03:14:14.385Z,100757.91
2019-05-02T03:20:20.188Z,100746.49
2019-05-02T03:26:26.613Z,100735.45
2019-05-02T03:32:36.017Z,100731.84
2019-05-02T03:38:42.255Z,100736.64
2019-05-02T03:44:54.646Z,100735.30
2019-05-02T03:50:55.954Z,100739.23
2019-05-02T03:57:01.698Z,100730.65
2019-05-02T04:03:07.494Z,100731.61
2019-05-02T04:09:39.082Z,100727.61
2019-05-02T04:15:42.108Z,100725.70
2019-05-02T04:21:52.638Z,100715.35
2019-05-02T04:27:56.710Z,100719.79
2019-05-02T04:34:13.660Z,100709.82
2019-05-02T04:40:12.355Z,100716.66
2019-05-02T04:46:25.838Z,100715.23
2019-05-02T04:52:25.490Z,100717.48
2019-05-02T04:58:34.812Z,100707.05
2019-05-02T05:04:45.783Z,100699.33
2019-05-02T05:10:47.875Z,100716.45
2019-05-02T05:16:55.584Z,100716.95
2019-05-02T05:23:01.380Z,100724.11
2019-05-02T05:29:08.244Z,100720.27
2019-05-02T05:35:14.383Z,100722.19
2019-05-02T05:41:23.147Z,100726.16
2019-05-02T05:47:27.858Z,100715.73
2019-05-02T05:53:33.747Z,100721.48
2019-05-02T05:59:39.722Z,100715.45
2019-05-02T06:05:47.642Z,100718.59
2019-05-02T06:11:55.468Z,100715.97
2019-05-02T06:18:04.847Z,100714.66
2019-05-02T06:24:11.023Z,100701.93
2019-05-02T06:30:17.029Z,100700.56
2019-05-02T06:36:22.809Z,100695.71
2019-05-02T06:42:32.671Z,100692.61
2019-05-02T06:48:36.497Z,100693.06
2019-05-02T06:54:42.436Z,100694.80
2019-05-02T07:00:58.096Z,100688.61
2019-05-02T07:06:59.783Z,100688.52
2019-05-02T07:13:10.886Z,100681.42
2019-05-02T07:19:40.255Z,100693.20
2019-05-02T07:25:46.803Z,100689.62
2019-05-02T07:31:53.618Z,100682.10
2019-05-02T07:38:01.634Z,100686.41
2019-05-02T07:44:07.438Z,100683.28
2019-05-02T07:50:14.551Z,100689.78
2019-05-02T07:56:20.496Z,100686.20
2019-05-02T08:02:26.908Z,100695.76
2019-05-02T08:08:32.681Z,100690.85
2019-05-02T08:14:38.502Z,100692.53
2019-05-02T08:20:44.250Z,100690.30
2019-05-02T08:27:07.711Z,100686.34
2019-05-02T08:33:14.056Z,100691.41
2019-05-02T08:39:20.033Z,100690.41
2019-05-02T08:45:25.878Z,100691.34
2019-05-02T08:51:33.551Z,100687.94
2019-05-02T08:57:39.524Z,100690.91
2019-05-02T09:04:00.518Z,100687.31
2019-05-02T09:09:55.536Z,100672.88
2019-05-02T09:16:03.615Z,100674.70
2019-05-02T09:22:13.175Z,100661.95
2019-05-02T09:28:17.072Z,100664.26
2019-05-02T09:34:26.735Z,100650.17
2019-05-02T09:40:31.895Z,100640.67
2019-05-02T09:46:37.943Z,100642.55
2019-05-02T09:52:44.367Z,100630.36
2019-05-02T09:58:55.275Z,100623.49
2019-05-02T10:04:58.299Z,100602.66
2019-05-02T10:11:04.138Z,100602.90
2019-05-02T10:17:12.530Z,100594.33
2019-05-02T10:23:20.717Z,100595.96
2019-05-02T10:29:28.425Z,100578.21
2019-05-02T10:35:40.715Z,100572.80
2019-05-02T10:41:45.366Z,100565.49
2019-05-02T10:47:52.700Z,100553.80
2019-05-02T10:53:59.081Z,100561.14
2019-05-02T11:00:06.102Z,100549.54
2019-05-02T11:06:12.636Z,100543.88
2019-05-02T11:12:40.707Z,100542.64
2019-05-02T11:18:52.306Z,100529.70
2019-05-02T11:24:57.699Z,100517.56
2019-05-02T11:31:06.525Z,100517.39
2019-05-02T11:37:12.158Z,100512.92
2019-05-02T11:43:18.081Z,100507.16
2019-05-02T11:49:23.865Z,100496.25
2019-05-02T11:55:31.934Z,100497.50
2019-05-02T12:01:39.668Z,100493.72
2019-05-02T12:07:45.530Z,100478.03
2019-05-02T12:13:52.893Z,100463.77
2019-05-02T12:19:59.312Z,100459.78
2019-05-02T12:26:05.711Z,100460.48
2019-05-02T12:32:12.041Z,100458.19
2019-05-02T12:38:18.098Z,100449.99
2019-05-02T12:44:24.029Z,100440.37
2019-05-02T12:50:32.094Z,100444.09
2019-05-02T12:56:37.363Z,100429.17
2019-05-02T13:02:52.542Z,100422.89
2019-05-02T13:08:58.847Z,100409.92
2019-05-02T13:15:05.447Z,100404.70
2019-05-02T13:21:16.934Z,100399.73
2019-05-02T13:27:22.826Z,100395.02
2019-05-02T13:33:38.917Z,100388.12
2019-05-02T13:39:53.607Z,100376.34
2019-05-02T13:46:07.058Z,100378.32
2019-05-02T13:52:13.033Z,100369.77
2019-05-02T13:58:23.414Z,100369.16
2019-05-02T14:04:26.881Z,100370.45
2019-05-02T14:10:39.259Z,100377.74
2019-05-02T14:16:43.288Z,100378.95
2019-05-02T14:22:49.132Z,100390.26
2019-05-02T14:28:55.044Z,100394.72
2019-05-02T14:35:09.061Z,100407.59
2019-05-02T14:41:18.806Z,100392.49
2019-05-02T14:47:24.724Z,100380.42
2019-05-02T14:53:32.005Z,100381.66
2019-05-02T14:59:38.095Z,100372.19
2019-05-02T15:05:44.143Z,100372.56
2019-05-02T15:11:59.291Z,100370.52
2019-05-02T15:18:07.988Z,100356.58
2019-05-02T15:24:12.841Z,100344.26
2019-05-02T15:30:19.442Z,100342.61
2019-05-02T15:36:25.528Z,100337.95
2019-05-02T15:42:32.268Z,100324.78
2019-05-02T15:48:38.269Z,100322.71
2019-05-02T15:54:44.031Z,100316.59
2019-05-02T16:01:05.057Z,100350.53
2019-05-02T16:07:12.250Z,100373.45
2019-05-02T16:13:18.261Z,100367.77
2019-05-02T16:19:29.161Z,100374.54
2019-05-02T16:25:34.007Z,100381.62
2019-05-02T16:31:42.439Z,100380.19
2019-05-02T16:37:52.256Z,100383.63
2019-05-02T16:43:56.302Z,100392.77
2019-05-02T16:50:02.611Z,100396.56
2019-05-02T16:56:08.419Z,100383.72
2019-05-02T17:02:14.198Z,100390.23
2019-05-02T17:08:38.765Z,100392.29
2019-05-02T17:14:53.446Z,100395.85
2019-05-02T17:20:57.071Z,100401.05
2019-05-02T17:27:03.296Z,100399.34
2019-05-02T17:33:14.240Z,100395.52
2019-05-02T17:39:18.755Z,100397.73
2019-05-02T17:45:25.046Z,100393.86
2019-05-02T17:51:37.792Z,100403.56
2019-05-02T17:57:44.146Z,100403.19
2019-05-02T18:03:51.996Z,100407.13
2019-05-02T18:09:58.329Z,100403.45
2019-05-02T18:16:07.637Z,100400.81
2019-05-02T18:22:23.469Z,100412.34
2019-05-02T18:28:22.242Z,100401.96
2019-05-02T18:34:27.978Z,100413.98
2019-05-02T18:40:34.079Z,100405.47
2019-05-02T18:46:41.625Z,100411.83
2019-05-02T18:52:48.396Z,100423.42
2019-05-02T18:58:55.235Z,100424.86
2019-05-02T19:05:01.965Z,100425.54
2019-05-02T19:11:12.031Z,100425.54
2019-05-02T19:17:15.783Z,100433.20
2019-05-02T19:23:22.703Z,100438.66
2019-05-02T19:29:31.862Z,100436.14
2019-05-02T19:35:42.470Z,100441.15
2019-05-02T19:41:45.684Z,100441.67
2019-05-02T19:47:56.083Z,100444.78
2019-05-02T19:54:01.808Z,100441.15
2019-05-02T20:00:07.923Z,100439.27
2019-05-02T20:06:13.995Z,100451.53
2019-05-02T20:12:21.885Z,100456.26
2019-05-02T20:18:28.223Z,100464.41
2019-05-02T20:24:55.484Z,100478.29
2019-05-02T20:31:01.680Z,100490.72
2019-05-02T20:37:09.167Z,100491.42
2019-05-02T20:43:15.226Z,100496.03
2019-05-02T20:49:21.213Z,100502.45
2019-05-02T20:55:27.036Z,100510.95
2019-05-02T21:01:32.819Z,100514.20
2019-05-02T21:07:57.431Z,100512.97
2019-05-02T21:14:03.384Z,100517.02
2019-05-02T21:20:09.922Z,100518.50
2019-05-02T21:26:15.769Z,100515.46
2019-05-02T21:32:22.879Z,100519.48
2019-05-02T21:38:28.997Z,100528.78
2019-05-02T21:44:34.907Z,100529.72
2019-05-02T21:50:46.859Z,100543.30
2019-05-02T21:56:56.868Z,100545.42
2019-05-02T22:03:02.949Z,100545.83
2019-05-02T22:09:12.361Z,100547.45
2019-05-02T22:15:18.583Z,100543.45
2019-05-02T22:21:24.990Z,100553.88
2019-05-02T22:27:32.498Z,100541.55
2019-05-02T22:33:38.526Z,100551.65
2019-05-02T22:39:52.466Z,100554.23
2019-05-02T22:45:58.296Z,100558.19
2019-05-02T22:52:04.460Z,100559.92
2019-05-02T22:58:10.404Z,100574.42
2019-05-02T23:04:16.191Z,100571.88
2019-05-02T23:10:22.150Z,100575.50
2019-05-02T23:16:28.092Z,100580.91
2019-05-02T23:22:34.145Z,100585.80
2019-05-02T23:28:42.360Z,100586.22
2019-05-02T23:34:53.070Z,100587.50
2019-05-02T23:40:59.448Z,100591.91
2019-05-02T23:47:05.216Z,100590.13
2019-05-02T23:53:12.727Z,100597.62
2019-05-02T23:59:18.454Z,100597.66
